Time;durP1;ratioP1;P1;durP2;ratioP2;P2;SDS_P1;SDS_P2;PMS_P1;PMS_P2;Temp;Humidity;BMP_temperature;BMP_pressure;BME280_temperature;BME280_humidity;BME280_pressure;Samples;Min_cycle;Max_cycle;Signal;HPM_P1;HPM_P2
2023/10/27 00:01:15;;;;;;;;;;;;;;;9.90;100.00;98359.56;5090846;28;19919;-76
2023/10/27 00:03:59;;;;;;;;;;;;;;;9.89;100.00;98357.97;5083591;28;19970;-76
2023/10/27 00:06:43;;;;;;;;;;;;;;;9.91;100.00;98360.38;5094084;28;19954;-75
2023/10/27 00:09:27;;;;;;;;;;;;;;;9.90;100.00;98365.13;5092835;28;19943;-76
2023/10/27 00:12:11;;;;;;;;;;;;;;;9.90;100.00;98354.03;5066549;28;20414;-76
2023/10/27 00:14:55;;;;;;;;;;;;;;;9.88;100.00;98361.88;5095146;28;19978;-76
2023/10/27 00:17:39;;;;;;;;;;;;;;;9.91;100.00;98369.50;5096611;28;19919;-76
2023/10/27 00:20:24;;;;;;;;;;;;;;;9.90;100.00;98370.66;5096414;28;19994;-76
2023/10/27 00:23:08;;;;;;;;;;;;;;;9.94;100.00;98371.59;5096401;28;19920;-76
2023/10/27 00:25:52;;;;;;;;;;;;;;;9.92;100.00;98375.84;5077408;28;20380;-76
2023/10/27 00:28:36;;;;;;;;;;;;;;;9.92;100.00;98373.91;5090377;28;19962;-76
2023/10/27 00:31:20;;;;;;;;;;;;;;;9.93;100.00;98369.97;5069241;28;19969;-76
2023/10/27 00:34:04;;;;;;;;;;;;;;;9.97;100.00;98370.94;5082454;28;19943;-76
2023/10/27 00:36:48;;;;;;;;;;;;;;;9.97;100.00;98368.16;5081024;28;19919;-75
2023/10/27 00:39:32;;;;;;;;;;;;;;;9.98;100.00;98360.66;5084201;28;20279;-75
2023/10/27 00:42:16;;;;;;;;;;;;;;;10.00;100.00;98355.53;5094562;28;19919;-76
2023/10/27 00:45:00;;;;;;;;;;;;;;;10.03;100.00;98352.13;5099880;28;19990;-76
2023/10/27 00:47:44;;;;;;;;;;;;;;;10.04;100.00;98348.97;5085777;28;19955;-76
2023/10/27 00:50:28;;;;;;;;;;;;;;;10.04;100.00;98354.53;5100045;28;20292;-76
2023/10/27 00:53:12;;;;;;;;;;;;;;;10.05;100.00;98341.47;5085576;28;20018;-76
2023/10/27 00:55:56;;;;;;;;;;;;;;;10.06;100.00;98332.00;5086893;28;19937;-76
2023/10/27 00:58:40;;;;;;;;;;;;;;;10.07;100.00;98328.88;5096264;28;19963;-76
2023/10/27 01:01:24;;;;;;;;;;;;;;;10.09;100.00;98325.78;5100003;28;19934;-76
2023/10/27 01:04:08;;;;;;;;;;;;;;;10.10;100.00;98315.50;5087862;28;20343;-76
2023/10/27 01:06:52;;;;;;;;;;;;;;;10.10;100.00;98315.50;5096940;28;20068;-76
2023/10/27 01:09:36;;;;;;;;;;;;;;;10.10;100.00;98304.41;5085582;28;19938;-75
2023/10/27 01:12:20;;;;;;;;;;;;;;;10.09;100.00;98311.91;5082320;28;19923;-76
2023/10/27 01:15:04;;;;;;;;;;;;;;;10.03;100.00;98318.84;5112243;28;19920;-76
2023/10/27 01:17:48;;;;;;;;;;;;;;;10.01;100.00;98308.06;5080015;28;20281;-76
2023/10/27 01:20:32;;;;;;;;;;;;;;;10.02;100.00;98323.56;5093179;28;19924;-76
2023/10/27 01:23:16;;;;;;;;;;;;;;;9.97;100.00;98332.13;5118294;28;19978;-76
2023/10/27 01:26:00;;;;;;;;;;;;;;;9.93;100.00;98336.72;5085432;28;20018;-75
2023/10/27 01:28:44;;;;;;;;;;;;;;;9.91;100.00;98340.97;5093081;28;19969;-76
2023/10/27 01:31:28;;;;;;;;;;;;;;;9.87;100.00;98345.59;5099373;28;20394;-76
2023/10/27 01:34:12;;;;;;;;;;;;;;;9.82;100.00;98341.06;5095568;28;19920;-76
2023/10/27 01:36:56;;;;;;;;;;;;;;;9.82;100.00;98339.09;5094420;28;19926;-76
2023/10/27 01:39:40;;;;;;;;;;;;;;;9.77;100.00;98335.72;5070122;28;19970;-75
2023/10/27 01:42:24;;;;;;;;;;;;;;;9.75;100.00;98332.47;5094904;28;19919;-76
2023/10/27 01:45:08;;;;;;;;;;;;;;;9.69;100.00;98336.63;5093673;28;19924;-76
2023/10/27 01:47:52;;;;;;;;;;;;;;;9.64;100.00;98340.44;5106896;28;19947;-75
2023/10/27 01:50:36;;;;;;;;;;;;;;;9.62;100.00;98349.09;5095638;28;19978;-76
2023/10/27 01:53:20;;;;;;;;;;;;;;;9.58;100.00;98347.31;5111512;28;19923;-76
2023/10/27 01:56:04;;;;;;;;;;;;;;;9.50;100.00;98337.97;5081095;28;19920;-76
2023/10/27 01:58:48;;;;;;;;;;;;;;;9.50;100.00;98342.66;5096932;28;19969;-76
2023/10/27 02:01:32;;;;;;;;;;;;;;;9.42;100.00;98344.38;5098802;28;19958;-75
2023/10/27 02:04:16;;;;;;;;;;;;;;;9.40;100.00;98339.16;5092924;28;19923;-76
2023/10/27 02:07:00;;;;;;;;;;;;;;;9.37;100.00;98330.75;5098407;28;20405;-76
2023/10/27 02:09:44;;;;;;;;;;;;;;;9.33;100.00;98340.84;5093020;28;19919;-76
2023/10/27 02:12:28;;;;;;;;;;;;;;;9.33;100.00;98335.31;5098375;28;19919;-76
2023/10/27 02:15:12;;;;;;;;;;;;;;;9.31;100.00;98340.41;5092814;28;19927;-76
2023/10/27 02:17:56;;;;;;;;;;;;;;;9.32;100.00;98347.56;5108530;28;19919;-75
2023/10/27 02:20:40;;;;;;;;;;;;;;;9.31;100.00;98346.75;5092322;28;19927;-76
2023/10/27 02:23:25;;;;;;;;;;;;;;;9.28;100.00;98349.41;5085907;28;19919;-76
2023/10/27 02:26:10;;;;;;;;;;;;;;;9.26;100.00;98343.38;5083958;28;20276;-76
2023/10/27 02:28:54;;;;;;;;;;;;;;;9.24;100.00;98332.63;5098061;28;20386;-76
2023/10/27 02:31:38;;;;;;;;;;;;;;;9.18;100.00;98333.97;5086985;28;19919;-76
2023/10/27 02:34:22;;;;;;;;;;;;;;;9.19;100.00;98341.13;5097218;28;19920;-76
2023/10/27 02:37:06;;;;;;;;;;;;;;;9.18;100.00;98329.25;5093303;28;19927;-76
2023/10/27 02:39:50;;;;;;;;;;;;;;;9.14;100.00;98330.28;5074845;28;19943;-76
2023/10/27 02:42:36;;;;;;;;;;;;;;;9.15;100.00;98321.63;5094006;28;19918;-76
2023/10/27 02:45:21;;;;;;;;;;;;;;;9.12;100.00;98325.06;5080968;28;19938;-76
2023/10/27 02:48:05;;;;;;;;;;;;;;;9.15;100.00;98320.81;5108568;28;19965;-76
2023/10/27 02:50:49;;;;;;;;;;;;;;;9.10;100.00;98330.13;5082487;28;20015;-76
2023/10/27 02:53:34;;;;;;;;;;;;;;;9.08;100.00;98337.13;5092467;28;19919;-76
2023/10/27 02:56:18;;;;;;;;;;;;;;;9.07;100.00;98321.69;5099049;28;19973;-76
2023/10/27 02:59:03;;;;;;;;;;;;;;;9.03;100.00;98329.88;5096392;28;19964;-76
2023/10/27 03:01:47;;;;;;;;;;;;;;;9.02;100.00;98330.19;5098638;28;20280;-76
2023/10/27 03:04:31;;;;;;;;;;;;;;;8.99;100.00;98328.91;5091615;28;19919;-76
2023/10/27 03:07:15;;;;;;;;;;;;;;;8.99;100.00;98317.84;5085527;28;19918;-76
2023/10/27 03:09:59;;;;;;;;;;;;;;;8.99;100.00;98320.59;5092646;28;19924;-76
2023/10/27 03:12:43;;;;;;;;;;;;;;;8.97;100.00;98334.00;5092880;28;19923;-76
2023/10/27 03:15:28;;;;;;;;;;;;;;;9.02;100.00;98328.22;5085564;28;19957;-76
2023/10/27 03:18:12;;;;;;;;;;;;;;;8.99;100.00;98328.09;5081029;28;19919;-76
2023/10/27 03:20:56;;;;;;;;;;;;;;;8.99;100.00;98330.88;5077112;28;19923;-76
2023/10/27 03:23:40;;;;;;;;;;;;;;;8.97;100.00;98328.44;5091121;28;20251;-76
2023/10/27 03:26:24;;;;;;;;;;;;;;;8.98;100.00;98318.19;5095381;28;19923;-76
2023/10/27 03:29:08;;;;;;;;;;;;;;;8.96;100.00;98324.03;5077312;28;19958;-76
2023/10/27 03:31:52;;;;;;;;;;;;;;;8.95;100.00;98337.09;5091279;28;19923;-76
2023/10/27 03:34:36;;;;;;;;;;;;;;;8.99;100.00;98331.66;5090316;28;20014;-76
2023/10/27 03:37:20;;;;;;;;;;;;;;;8.94;100.00;98335.47;5106152;28;20288;-76
2023/10/27 03:40:05;;;;;;;;;;;;;;;8.92;100.00;98320.34;5097798;28;19931;-76
2023/10/27 03:42:50;;;;;;;;;;;;;;;8.91;100.00;98330.59;5081656;28;20287;-76
2023/10/27 03:45:34;;;;;;;;;;;;;;;8.90;100.00;98336.47;5093484;28;19934;-75
2023/10/27 03:48:18;;;;;;;;;;;;;;;8.91;100.00;98335.31;5096862;28;19920;-76
2023/10/27 03:51:02;;;;;;;;;;;;;;;8.89;100.00;98332.09;5096989;28;20406;-76
2023/10/27 03:53:47;;;;;;;;;;;;;;;8.87;100.00;98323.31;5093310;28;19919;-76
2023/10/27 03:56:32;;;;;;;;;;;;;;;8.87;100.00;98328.84;5082526;28;19924;-76
2023/10/27 03:59:19;;;;;;;;;;;;;;;8.86;100.00;98310.59;5077479;28;19923;-76
2023/10/27 04:02:04;;;;;;;;;;;;;;;8.85;100.00;98315.31;5099670;28;19918;-76
2023/10/27 04:04:48;;;;;;;;;;;;;;;8.89;100.00;98315.47;5090842;28;19920;-76
2023/10/27 04:07:33;;;;;;;;;;;;;;;8.90;100.00;98312.34;5085173;28;19918;-76
2023/10/27 04:10:17;;;;;;;;;;;;;;;8.89;100.00;98319.06;5084392;28;19934;-75
2023/10/27 04:13:01;;;;;;;;;;;;;;;8.89;100.00;98321.00;5082686;28;19922;-76
2023/10/27 04:15:45;;;;;;;;;;;;;;;8.87;100.00;98318.56;5101824;28;19918;-76
2023/10/27 04:18:29;;;;;;;;;;;;;;;8.89;100.00;98321.00;5100311;28;19919;-76
2023/10/27 04:21:13;;;;;;;;;;;;;;;8.91;100.00;98311.22;5081739;28;19924;-76
2023/10/27 04:23:58;;;;;;;;;;;;;;;8.91;100.00;98314.00;5094667;28;20018;-76
2023/10/27 04:26:42;;;;;;;;;;;;;;;8.90;100.00;98317.09;5086968;28;19919;-76
2023/10/27 04:29:26;;;;;;;;;;;;;;;8.90;100.00;98322.63;5096670;28;19920;-76
2023/10/27 04:32:10;;;;;;;;;;;;;;;8.89;100.00;98312.72;5094766;28;19974;-76
2023/10/27 04:34:53;;;;;;;;;;;;;;;8.89;100.00;98315.47;5088040;28;19919;-75
2023/10/27 04:37:37;;;;;;;;;;;;;;;8.89;100.00;98316.28;5095383;28;20053;-76
2023/10/27 04:40:22;;;;;;;;;;;;;;;8.80;100.00;98321.03;5091471;28;20348;-76
2023/10/27 04:43:06;;;;;;;;;;;;;;;8.78;100.00;98317.81;5087386;28;19957;-76
2023/10/27 04:45:50;;;;;;;;;;;;;;;8.78;100.00;98319.78;5082412;28;19923;-76
2023/10/27 04:48:34;;;;;;;;;;;;;;;8.75;100.00;98328.72;5094226;28;19920;-76
2023/10/27 04:51:20;;;;;;;;;;;;;;;8.80;100.00;98328.53;5089886;28;20375;-75
2023/10/27 04:54:04;;;;;;;;;;;;;;;8.73;100.00;98329.09;5100187;28;19919;-76
2023/10/27 04:56:49;;;;;;;;;;;;;;;8.71;100.00;98342.44;5101120;28;19998;-75
2023/10/27 04:59:33;;;;;;;;;;;;;;;8.63;100.00;98341.34;5079241;28;19923;-76
2023/10/27 05:02:17;;;;;;;;;;;;;;;8.64;100.00;98336.63;5079617;28;19995;-76
2023/10/27 05:05:01;;;;;;;;;;;;;;;8.59;100.00;98343.16;5096070;28;19966;-76
2023/10/27 05:07:45;;;;;;;;;;;;;;;8.61;100.00;98343.66;5083132;28;19919;-76
2023/10/27 05:10:29;;;;;;;;;;;;;;;8.60;100.00;98347.53;5069706;28;19966;-75
2023/10/27 05:13:13;;;;;;;;;;;;;;;8.58;100.00;98344.31;5113733;27;20371;-76
2023/10/27 05:15:57;;;;;;;;;;;;;;;8.53;100.00;98340.94;5085405;28;19920;-76
2023/10/27 05:18:41;;;;;;;;;;;;;;;8.54;100.00;98332.28;5086747;28;19923;-76
2023/10/27 05:21:26;;;;;;;;;;;;;;;8.53;100.00;98330.66;5096797;28;19957;-76
2023/10/27 05:24:11;;;;;;;;;;;;;;;8.50;100.00;98323.03;5093752;28;19922;-75
2023/10/27 05:26:55;;;;;;;;;;;;;;;8.45;100.00;98329.56;5093364;28;19962;-76
2023/10/27 05:29:39;;;;;;;;;;;;;;;8.43;100.00;98325.50;5097949;28;20003;-76
2023/10/27 05:32:23;;;;;;;;;;;;;;;8.42;100.00;98329.44;5100662;28;19958;-76
2023/10/27 05:35:06;;;;;;;;;;;;;;;8.39;100.00;98324.56;5093481;28;19958;-76
2023/10/27 05:37:50;;;;;;;;;;;;;;;8.33;100.00;98323.06;5095777;28;19931;-76
2023/10/27 05:40:34;;;;;;;;;;;;;;;8.33;100.00;98325.84;5077707;28;19939;-75
2023/10/27 05:43:20;;;;;;;;;;;;;;;8.34;100.00;98335.78;5073659;28;19942;-76
2023/10/27 05:46:03;;;;;;;;;;;;;;;8.29;100.00;98325.69;5095393;28;19919;-76
2023/10/27 05:48:47;;;;;;;;;;;;;;;8.29;100.00;98325.69;5100126;28;19919;-76
2023/10/27 05:51:33;;;;;;;;;;;;;;;8.30;100.00;98327.31;5078830;28;19984;-75
2023/10/27 05:54:17;;;;;;;;;;;;;;;8.23;100.00;98325.06;5099411;28;20026;-76
2023/10/27 05:57:02;;;;;;;;;;;;;;;8.25;100.00;98302.63;5095035;28;20363;-76
2023/10/27 05:59:47;;;;;;;;;;;;;;;8.20;100.00;98316.63;5098955;28;20003;-76
2023/10/27 06:02:30;;;;;;;;;;;;;;;8.20;100.00;98311.91;5066378;28;19970;-75
2023/10/27 06:05:15;;;;;;;;;;;;;;;8.21;100.00;98309.94;5095871;28;19934;-75
2023/10/27 06:07:59;;;;;;;;;;;;;;;8.18;100.00;98307.84;5098913;28;20003;-76
2023/10/27 06:10:43;;;;;;;;;;;;;;;8.14;100.00;98306.91;5070732;28;20329;-76
2023/10/27 06:13:27;;;;;;;;;;;;;;;8.13;100.00;98303.31;5095460;28;19919;-76
2023/10/27 06:16:11;;;;;;;;;;;;;;;8.11;100.00;98302.84;5078444;28;19920;-76
2023/10/27 06:18:55;;;;;;;;;;;;;;;8.06;100.00;98303.03;5099277;28;19919;-75
2023/10/27 06:21:40;;;;;;;;;;;;;;;8.06;100.00;98303.03;5105123;28;19957;-75
2023/10/27 06:24:24;;;;;;;;;;;;;;;8.04;100.00;98299.78;5081983;28;20374;-75
2023/10/27 06:27:08;;;;;;;;;;;;;;;8.03;100.00;98296.22;5078164;28;19935;-76
2023/10/27 06:29:52;;;;;;;;;;;;;;;8.02;100.00;98296.53;5077957;28;19966;-75
2023/10/27 06:32:36;;;;;;;;;;;;;;;7.97;100.00;98293.97;5094493;28;19934;-76
2023/10/27 06:35:20;;;;;;;;;;;;;;;8.00;100.00;98298.84;5098274;28;20299;-76
2023/10/27 06:38:04;;;;;;;;;;;;;;;7.95;100.00;98299.00;5077258;28;19927;-76
2023/10/27 06:40:48;;;;;;;;;;;;;;;7.95;100.00;98302.56;5092637;28;19922;-76
2023/10/27 06:43:32;;;;;;;;;;;;;;;7.95;100.00;98304.53;5083196;28;19918;-75
2023/10/27 06:46:16;;;;;;;;;;;;;;;7.93;100.00;98306.81;5065028;28;19920;-75
2023/10/27 06:49:00;;;;;;;;;;;;;;;7.94;100.00;98305.66;5094158;28;19923;-76
2023/10/27 06:51:47;;;;;;;;;;;;;;;7.90;100.00;98302.75;5097797;28;19919;-76
2023/10/27 06:54:32;;;;;;;;;;;;;;;7.89;100.00;98303.91;5086083;28;19923;-76
2023/10/27 06:57:16;;;;;;;;;;;;;;;7.92;100.00;98299.66;5081955;28;19919;-76
2023/10/27 07:00:00;;;;;;;;;;;;;;;7.86;100.00;98303.75;5082912;28;19984;-76
2023/10/27 07:02:44;;;;;;;;;;;;;;;7.89;100.00;98300.34;5098277;28;19925;-75
2023/10/27 07:05:29;;;;;;;;;;;;;;;7.86;100.00;98299.03;5097099;28;19919;-76
2023/10/27 07:08:12;;;;;;;;;;;;;;;7.90;100.00;98301.94;5078782;28;20321;-76
2023/10/27 07:11:00;;;;;;;;;;;;;;;7.91;100.00;98303.56;5082760;28;19918;-76
2023/10/27 07:13:44;;;;;;;;;;;;;;;7.92;100.00;98313.50;5083132;28;19961;-77
2023/10/27 07:16:28;;;;;;;;;;;;;;;7.98;100.00;98314.94;5081765;28;19994;-76
2023/10/27 07:19:12;;;;;;;;;;;;;;;8.03;100.00;98332.16;5097053;28;19973;-76
2023/10/27 07:21:56;;;;;;;;;;;;;;;8.05;100.00;98334.56;5093370;28;19919;-76
2023/10/27 07:24:40;;;;;;;;;;;;;;;8.09;100.00;98323.69;5080230;28;19980;-76
2023/10/27 07:27:24;;;;;;;;;;;;;;;8.14;100.00;98324.31;5096915;28;19919;-76
2023/10/27 07:30:08;;;;;;;;;;;;;;;8.21;100.00;98323.78;5071280;28;20011;-76
2023/10/27 07:32:52;;;;;;;;;;;;;;;8.29;100.00;98329.28;5081482;28;20365;-76
2023/10/27 07:35:36;;;;;;;;;;;;;;;8.37;100.00;98335.91;5082695;28;19972;-76
2023/10/27 07:38:20;;;;;;;;;;;;;;;8.47;100.00;98341.13;5091044;28;19931;-76
2023/10/27 07:41:04;;;;;;;;;;;;;;;8.58;100.00;98337.94;5094321;28;19970;-76
2023/10/27 07:43:48;;;;;;;;;;;;;;;8.69;100.00;98344.72;5090376;28;19992;-76
2023/10/27 07:46:32;;;;;;;;;;;;;;;8.80;100.00;98350.69;5079262;28;20363;-76
2023/10/27 07:49:16;;;;;;;;;;;;;;;8.92;100.00;98348.81;5082149;28;20001;-76
2023/10/27 07:52:03;;;;;;;;;;;;;;;9.06;100.00;98350.53;5082458;28;19978;-76
2023/10/27 07:54:47;;;;;;;;;;;;;;;9.18;100.00;98351.41;5076515;28;19919;-76
2023/10/27 07:57:32;;;;;;;;;;;;;;;9.30;100.00;98363.69;5082893;28;19944;-76
2023/10/27 08:00:16;;;;;;;;;;;;;;;9.42;100.00;98355.47;5082348;28;20351;-76
2023/10/27 08:03:00;;;;;;;;;;;;;;;9.51;100.00;98347.09;5096665;28;20409;-76
2023/10/27 08:05:44;;;;;;;;;;;;;;;9.59;100.00;98344.22;5092549;28;19964;-76
2023/10/27 08:08:28;;;;;;;;;;;;;;;9.70;100.00;98355.69;5099638;28;19979;-77
2023/10/27 08:11:17;;;;;;;;;;;;;;;9.77;100.00;98361.50;5092506;28;19923;-76
2023/10/27 08:14:01;;;;;;;;;;;;;;;9.86;100.00;98364.16;5086896;28;20000;-77
2023/10/27 08:16:45;;;;;;;;;;;;;;;9.91;100.00;98355.66;5095897;28;19919;-76
2023/10/27 08:19:29;;;;;;;;;;;;;;;10.01;100.00;98368.28;5097086;28;19923;-76
2023/10/27 08:22:13;;;;;;;;;;;;;;;10.07;100.00;98359.38;5096905;28;20371;-76
2023/10/27 08:24:57;;;;;;;;;;;;;;;10.13;100.00;98351.66;5097604;28;19919;-75
2023/10/27 08:27:41;;;;;;;;;;;;;;;10.21;100.00;98347.16;5079683;28;19923;-74
2023/10/27 08:30:25;;;;;;;;;;;;;;;10.25;100.00;98348.91;5096719;28;19919;-74
2023/10/27 08:33:10;;;;;;;;;;;;;;;10.30;100.00;98345.13;5085961;28;19969;-74
2023/10/27 08:36:02;;;;;;;;;;;;;;;10.37;100.00;98347.34;5107733;28;20377;-74
2023/10/27 08:38:46;;;;;;;;;;;;;;;10.43;100.00;98355.09;5082107;28;20007;-74
2023/10/27 08:41:30;;;;;;;;;;;;;;;10.47;100.00;98353.25;5083733;28;19938;-74
2023/10/27 08:44:14;;;;;;;;;;;;;;;10.54;100.00;98351.88;5079485;28;19920;-74
2023/10/27 08:46:58;;;;;;;;;;;;;;;10.59;100.00;98365.53;5087227;28;19920;-74
2023/10/27 08:49:42;;;;;;;;;;;;;;;10.63;100.00;98358.09;5082138;28;19920;-74
2023/10/27 08:52:26;;;;;;;;;;;;;;;10.71;100.00;98359.97;5093298;28;20276;-74
2023/10/27 08:55:10;;;;;;;;;;;;;;;10.76;100.00;98351.41;5096708;28;19923;-74
2023/10/27 08:57:55;;;;;;;;;;;;;;;10.84;100.00;98353.25;5079268;28;19920;-74
2023/10/27 09:00:39;;;;;;;;;;;;;;;10.89;100.00;98353.03;5099606;28;19938;-74
2023/10/27 09:03:25;;;;;;;;;;;;;;;10.93;100.00;98351.16;5085467;28;19977;-74
2023/10/27 09:06:09;;;;;;;;;;;;;;;10.99;100.00;98350.91;5093991;28;19951;-74
2023/10/27 09:08:53;;;;;;;;;;;;;;;11.05;100.00;98346.75;5092797;28;19919;-74
2023/10/27 09:11:44;;;;;;;;;;;;;;;11.09;100.00;98339.34;5099562;28;19965;-74
2023/10/27 09:14:30;;;;;;;;;;;;;;;11.12;100.00;98341.41;5079058;28;19935;-74
2023/10/27 09:17:15;;;;;;;;;;;;;;;11.15;100.00;98340.72;5085696;28;20298;-74
2023/10/27 09:20:05;;;;;;;;;;;;;;;11.18;100.00;98342.78;5099021;28;19969;-74
2023/10/27 09:23:04;;;;;;;;;;;;;;;11.22;100.00;98346.47;5099733;28;19938;-74
2023/10/27 09:25:48;;;;;;;;;;;;;;;11.26;100.00;98341.03;5099631;28;20264;-74
2023/10/27 09:28:32;;;;;;;;;;;;;;;11.27;100.00;98337.09;5078865;28;19918;-77
2023/10/27 09:31:31;;;;;;;;;;;;;;;11.30;100.00;98336.38;5099390;28;19954;-77
2023/10/27 09:34:19;;;;;;;;;;;;;;;11.31;100.00;98338.81;5100475;28;19918;-76
2023/10/27 09:37:03;;;;;;;;;;;;;;;11.33;100.00;98336.47;5079075;28;20443;-76
2023/10/27 09:39:47;;;;;;;;;;;;;;;11.37;100.00;98345.75;5100404;28;20009;-77
2023/10/27 09:42:31;;;;;;;;;;;;;;;11.38;100.00;98343.75;5097006;28;20306;-76
2023/10/27 09:45:15;;;;;;;;;;;;;;;11.38;100.00;98350.13;5097575;28;19999;-77
2023/10/27 09:48:02;;;;;;;;;;;;;;;11.41;100.00;98343.06;5092873;28;19970;-77
2023/10/27 09:50:46;;;;;;;;;;;;;;;11.42;100.00;98336.31;5095726;28;19919;-77
2023/10/27 09:53:30;;;;;;;;;;;;;;;11.41;100.00;98321.63;5092855;28;19919;-76
2023/10/27 09:56:14;;;;;;;;;;;;;;;11.43;100.00;98331.59;5078568;28;20008;-77
2023/10/27 09:59:00;;;;;;;;;;;;;;;11.46;100.00;98328.91;5096876;28;19934;-77
2023/10/27 10:01:44;;;;;;;;;;;;;;;11.46;100.00;98330.91;5099937;28;20362;-77
2023/10/27 10:04:50;;;;;;;;;;;;;;;11.46;100.00;98340.03;5098825;28;19922;-77
2023/10/27 10:07:34;;;;;;;;;;;;;;;11.48;100.00;98332.16;5081630;28;20034;-76
2023/10/27 10:10:34;;;;;;;;;;;;;;;11.49;100.00;98331.00;5079986;28;20371;-76
2023/10/27 10:13:19;;;;;;;;;;;;;;;11.49;100.00;98327.41;5093564;28;19927;-76
2023/10/27 10:16:03;;;;;;;;;;;;;;;11.48;100.00;98318.25;5089632;28;19930;-76
2023/10/27 10:18:48;;;;;;;;;;;;;;;11.46;100.00;98317.00;5087439;28;19935;-76
2023/10/27 10:21:34;;;;;;;;;;;;;;;11.47;100.00;98324.97;5098244;28;19961;-76
2023/10/27 10:24:22;;;;;;;;;;;;;;;11.45;100.00;98327.31;5082041;28;20272;-76
2023/10/27 10:27:06;;;;;;;;;;;;;;;11.45;100.00;98327.31;5082845;28;19919;-76
2023/10/27 10:29:49;;;;;;;;;;;;;;;11.45;100.00;98329.25;5097919;28;20432;-75
2023/10/27 10:32:34;;;;;;;;;;;;;;;11.40;100.00;98335.88;5096232;28;19918;-75
2023/10/27 10:35:19;;;;;;;;;;;;;;;11.40;100.00;98330.34;5100181;28;20386;-75
2023/10/27 10:38:23;;;;;;;;;;;;;;;11.40;100.00;98319.22;5079150;28;19927;-75
2023/10/27 10:41:07;;;;;;;;;;;;;;;11.37;100.00;98331.03;5123969;27;19985;-76
2023/10/27 10:44:11;;;;;;;;;;;;;;;11.35;100.00;98328.59;5091658;28;19981;-76
2023/10/27 10:46:55;;;;;;;;;;;;;;;11.33;100.00;98327.34;5097995;28;19918;-75
2023/10/27 10:49:39;;;;;;;;;;;;;;;11.31;100.00;98340.75;5068274;28;20265;-76
2023/10/27 10:52:24;;;;;;;;;;;;;;;11.30;100.00;98342.75;5078772;28;20011;-75
2023/10/27 10:55:09;;;;;;;;;;;;;;;11.29;100.00;98334.78;5097395;28;19963;-76
2023/10/27 10:57:54;;;;;;;;;;;;;;;11.28;100.00;98333.13;5085692;28;19981;-75
2023/10/27 11:00:38;;;;;;;;;;;;;;;11.27;100.00;98325.97;5095835;28;19973;-76
2023/10/27 11:03:23;;;;;;;;;;;;;;;11.24;100.00;98332.22;5082917;28;19934;-75
2023/10/27 11:06:07;;;;;;;;;;;;;;;11.21;100.00;98342.06;5091375;28;19919;-75
2023/10/27 11:08:51;;;;;;;;;;;;;;;11.21;100.00;98333.75;5111017;28;19955;-75
2023/10/27 11:11:35;;;;;;;;;;;;;;;11.17;100.00;98344.75;5107169;28;20401;-75
2023/10/27 11:14:19;;;;;;;;;;;;;;;11.17;100.00;98349.47;5109314;28;20358;-75
2023/10/27 11:17:03;;;;;;;;;;;;;;;11.14;100.00;98345.47;5084286;28;19933;-75
2023/10/27 11:19:51;;;;;;;;;;;;;;;11.13;100.00;98348.56;5082097;28;20299;-75
2023/10/27 11:22:35;;;;;;;;;;;;;;;11.13;100.00;98345.78;5077002;28;20424;-75
2023/10/27 11:25:26;;;;;;;;;;;;;;;11.11;100.00;98345.34;5082543;28;20008;-75
2023/10/27 11:28:16;;;;;;;;;;;;;;;11.08;100.00;98346.03;5110827;28;19923;-75
2023/10/27 11:31:19;;;;;;;;;;;;;;;11.07;100.00;98352.75;5093889;28;19931;-75
2023/10/27 11:34:03;;;;;;;;;;;;;;;11.06;100.00;98353.91;5097137;28;20359;-75
2023/10/27 11:37:01;;;;;;;;;;;;;;;11.05;100.00;98355.06;5095674;28;19923;-75
2023/10/27 11:39:44;;;;;;;;;;;;;;;11.02;100.00;98351.03;5097276;28;20428;-75
2023/10/27 11:42:29;;;;;;;;;;;;;;;11.02;100.00;98358.56;5092762;28;19927;-75
2023/10/27 11:45:15;;;;;;;;;;;;;;;11.01;100.00;98356.94;5095290;28;20005;-75
2023/10/27 11:47:59;;;;;;;;;;;;;;;11.00;100.00;98358.09;5085399;28;19919;-75
2023/10/27 11:50:42;;;;;;;;;;;;;;;11.02;100.00;98364.09;5094160;28;20213;-75
2023/10/27 11:53:26;;;;;;;;;;;;;;;11.01;100.00;98362.50;5109439;28;19919;-75
2023/10/27 11:56:10;;;;;;;;;;;;;;;11.03;100.00;98360.16;5066095;28;19994;-75
2023/10/27 11:58:55;;;;;;;;;;;;;;;11.03;100.00;98361.00;5095015;28;20394;-75
2023/10/27 12:01:39;;;;;;;;;;;;;;;11.04;100.00;98356.25;5076780;28;19919;-75
2023/10/27 12:04:23;;;;;;;;;;;;;;;11.05;100.00;98368.97;5076383;28;19918;-75
2023/10/27 12:07:11;;;;;;;;;;;;;;;11.06;100.00;98360.28;5095688;28;20266;-75
2023/10/27 12:09:55;;;;;;;;;;;;;;;11.09;100.00;98375.44;5077891;28;19942;-75
2023/10/27 12:12:39;;;;;;;;;;;;;;;11.09;100.00;98370.69;5090220;28;19920;-75
2023/10/27 12:15:23;;;;;;;;;;;;;;;11.12;100.00;98374.75;5077845;28;19940;-75
2023/10/27 12:18:07;;;;;;;;;;;;;;;11.12;100.00;98364.44;5094292;28;20405;-75
2023/10/27 12:20:51;;;;;;;;;;;;;;;11.14;100.00;98372.41;5090605;28;20010;-75
2023/10/27 12:23:35;;;;;;;;;;;;;;;11.14;100.00;98376.03;5084972;28;19919;-75
2023/10/27 12:26:19;;;;;;;;;;;;;;;11.17;100.00;98377.25;5096144;28;19919;-75
2023/10/27 12:29:04;;;;;;;;;;;;;;;11.18;100.00;98373.34;5076422;28;19972;-76
2023/10/27 12:31:48;;;;;;;;;;;;;;;11.19;100.00;98363.84;5100552;28;19964;-75
2023/10/27 12:34:32;;;;;;;;;;;;;;;11.20;100.00;98362.69;5101621;28;19958;-75
2023/10/27 12:37:16;;;;;;;;;;;;;;;11.22;100.00;98356.78;5081728;28;19966;-75
2023/10/27 12:40:04;;;;;;;;;;;;;;;11.23;100.00;98364.78;5068871;28;20276;-75
2023/10/27 12:42:48;;;;;;;;;;;;;;;11.26;100.00;98358.50;5098275;28;20287;-75
2023/10/27 12:45:32;;;;;;;;;;;;;;;11.29;100.00;98357.00;5096022;28;19958;-74
2023/10/27 12:48:16;;;;;;;;;;;;;;;11.31;100.00;98349.94;5080289;28;20265;-74
2023/10/27 12:51:00;;;;;;;;;;;;;;;11.35;100.00;98355.59;5099422;28;19919;-74
2023/10/27 12:53:44;;;;;;;;;;;;;;;11.41;100.00;98354.97;5088116;28;19918;-74
2023/10/27 12:56:28;;;;;;;;;;;;;;;11.49;100.00;98346.88;5094173;28;19935;-74
2023/10/27 12:59:12;;;;;;;;;;;;;;;11.54;100.00;98346.63;5079802;28;19923;-74
2023/10/27 13:01:57;;;;;;;;;;;;;;;11.63;100.00;98338.94;5086911;28;20014;-74
2023/10/27 13:04:41;;;;;;;;;;;;;;;11.72;100.00;98336.78;5101458;28;19985;-74
2023/10/27 13:07:25;;;;;;;;;;;;;;;11.81;100.00;98331.06;5085820;28;19926;-74
2023/10/27 13:10:09;;;;;;;;;;;;;;;11.91;100.00;98332.56;5096959;28;19942;-74
2023/10/27 13:13:02;;;;;;;;;;;;;;;12.01;100.00;98329.28;5099473;28;19918;-74
2023/10/27 13:15:46;;;;;;;;;;;;;;;12.13;100.00;98325.63;5102146;28;19935;-74
2023/10/27 13:18:30;;;;;;;;;;;;;;;12.21;100.00;98330.19;5086249;28;20003;-74
2023/10/27 13:21:14;;;;;;;;;;;;;;;12.28;100.00;98336.72;5099094;28;19923;-74
2023/10/27 13:23:58;;;;;;;;;;;;;;;12.39;100.00;98331.44;5085526;28;19919;-74
2023/10/27 13:26:43;;;;;;;;;;;;;;;12.46;100.00;98342.78;5081025;28;19924;-74
2023/10/27 13:29:26;;;;;;;;;;;;;;;12.53;100.00;98331.00;5096894;28;20041;-74
2023/10/27 13:32:11;;;;;;;;;;;;;;;12.58;100.00;98327.94;5093809;28;19923;-74
2023/10/27 13:34:55;;;;;;;;;;;;;;;12.64;100.00;98337.63;5088300;28;19919;-74
2023/10/27 13:37:39;;;;;;;;;;;;;;;12.69;100.00;98333.78;5081040;28;19927;-74
2023/10/27 13:40:23;;;;;;;;;;;;;;;12.72;100.00;98331.06;5084736;28;19955;-75
2023/10/27 13:43:09;;;;;;;;;;;;;;;12.78;100.00;98330.78;5085441;28;20375;-75
2023/10/27 13:46:03;;;;;;;;;;;;;;;12.80;100.00;98337.63;5095471;28;20276;-75
2023/10/27 13:48:47;;;;;;;;;;;;;;;12.82;100.00;98326.13;5080400;28;20315;-75
2023/10/27 13:51:31;;;;;;;;;;;;;;;12.82;100.00;98340.06;5078880;28;19969;-75
2023/10/27 13:54:15;;;;;;;;;;;;;;;12.81;100.00;98346.78;5098203;28;20371;-75
2023/10/27 13:57:00;;;;;;;;;;;;;;;12.80;100.00;98343.19;5094982;28;19920;-75
2023/10/27 13:59:45;;;;;;;;;;;;;;;12.79;100.00;98330.44;5078476;28;19924;-76
2023/10/27 14:02:28;;;;;;;;;;;;;;;12.78;100.00;98330.78;5115020;27;19996;-76
2023/10/27 14:05:12;;;;;;;;;;;;;;;12.74;100.00;98328.75;5081827;28;20428;-76
2023/10/27 14:07:57;;;;;;;;;;;;;;;12.74;100.00;98331.53;5099771;28;19919;-76
2023/10/27 14:10:41;;;;;;;;;;;;;;;12.73;100.00;98332.69;5091757;28;19923;-79
2023/10/27 14:13:26;;;;;;;;;;;;;;;12.70;100.00;98340.94;5082531;28;19919;-77